^^
Station Historical Data
Daily Summary for August 1, 2017 Units:  Both    English   Metric
« Previous Day
Next Day »
Daily Weekly Monthly Yearly Custom
  High: Low: Average:
Temperature: 72.1 °F /  22.3 °C 41.7 °F /  5.4 °C 56.7 °F /  13.7 °C
Dew Point: 37.9 °F /  3.3 °C 30.2 °F /  -1 °C 33 °F /  0.6 °C
Humidity: 70% 24% 44%
Wind Speed: 8.9mph /  14.3km/h - 0.7mph /  1.1km/h
Wind Gust: 10.0mph /  16.1km/h - -
Wind- - SW
Pressure: 30.40 in /  1029.3 hPa 30.29 in /  1025.6 hPa -
Precipitation: 0.00 in /  0 mm    
Historical Graphs
 
 
Tabular Data for August 1, 2017
Time Temperature Dew Point Pressure Wind Wind Speed Wind Gust Humidity Rainfall Rate (Hourly) solar Conditions
00:05 49.6 °F /  9.8 °C 32.7 °F /  0.4 °C 30.31in /  1026.3hPa Calm   1.0mph /  1.6km/h 52% 0.00in /  0mm 0.0 W/m2
00:11 49.5 °F /  9.7 °C 32.5 °F /  0.3 °C 30.31in /  1026.3hPa Calm   1.0mph /  1.6km/h 52% 0.00in /  0mm 0.0 W/m2
00:18 49.5 °F /  9.7 °C 33.1 °F /  0.6 °C 30.31in /  1026.3hPa Calm   2.0mph /  3.2km/h 53% 0.00in /  0mm 0.0 W/m2
00:24 49.3 °F /  9.6 °C 32.9 °F /  0.5 °C 30.31in /  1026.3hPa Calm   1.0mph /  1.6km/h 53% 0.00in /  0mm 0.0 W/m2
00:30 49.3 °F /  9.6 °C 32.9 °F /  0.5 °C 30.31in /  1026.3hPa Calm     53% 0.00in /  0mm 0.0 W/m2
00:36 49.3 °F /  9.6 °C 32.9 °F /  0.5 °C 30.31in /  1026.3hPa Calm   2.0mph /  3.2km/h 53% 0.00in /  0mm 0.0 W/m2
00:41 49.3 °F /  9.6 °C 32.9 °F /  0.5 °C 30.31in /  1026.3hPa Calm     53% 0.00in /  0mm 0.0 W/m2
00:48 49.1 °F /  9.5 °C 32.7 °F /  0.4 °C 30.31in /  1026.3hPa Calm   2.0mph /  3.2km/h 53% 0.00in /  0mm 0.0 W/m2
00:54 48.9 °F /  9.4 °C 32.5 °F /  0.3 °C 30.31in /  1026.3hPa Calm   1.0mph /  1.6km/h 53% 0.00in /  0mm 0.0 W/m2
01:00 48.7 °F /  9.3 °C 32.4 °F /  0.2 °C 30.31in /  1026.3hPa Calm     53% 0.00in /  0mm 0.0 W/m2
01:06 48.6 °F /  9.2 °C 32.2 °F /  0.1 °C 30.31in /  1026.3hPa Calm     53% 0.00in /  0mm 0.0 W/m2
01:12 48.4 °F /  9.1 °C 32.5 °F /  0.3 °C 30.31in /  1026.3hPa Calm   1.0mph /  1.6km/h 54% 0.00in /  0mm 0.0 W/m2
01:18 48.2 °F /  9 °C 32.7 °F /  0.4 °C 30.31in /  1026.3hPa Calm     55% 0.00in /  0mm 0.0 W/m2
01:24 47.8 °F /  8.8 °C 32.5 °F /  0.3 °C 30.31in /  1026.3hPa Calm     55% 0.00in /  0mm 0.0 W/m2
01:30 47.7 °F /  8.7 °C 32.4 °F /  0.2 °C 30.31in /  1026.3hPa Calm     55% 0.00in /  0mm 0.0 W/m2
01:36 47.5 °F /  8.6 °C 32.5 °F /  0.3 °C 30.31in /  1026.3hPa Calm     56% 0.00in /  0mm 0.0 W/m2
01:42 47.1 °F /  8.4 °C 32.2 °F /  0.1 °C 30.31in /  1026.3hPa Calm     56% 0.00in /  0mm 0.0 W/m2
01:48 46.9 °F /  8.3 °C 32.5 °F /  0.3 °C 30.31in /  1026.3hPa Calm   1.0mph /  1.6km/h 57% 0.00in /  0mm 0.0 W/m2
01:54 46.8 °F /  8.2 °C 32.4 °F /  0.2 °C 30.31in /  1026.3hPa Calm     57% 0.00in /  0mm 0.0 W/m2
02:00 46.8 °F /  8.2 °C 32.4 °F /  0.2 °C 30.31in /  1026.3hPa Calm     57% 0.00in /  0mm 0.0 W/m2
02:06 46.6 °F /  8.1 °C 32.2 °F /  0.1 °C 30.31in /  1026.3hPa Calm     57% 0.00in /  0mm 0.0 W/m2
02:12 46.2 °F /  7.9 °C 31.8 °F /  -0.1 °C 30.32in /  1026.6hPa Calm     57% 0.00in /  0mm 0.0 W/m2
02:18 45.9 °F /  7.7 °C 32.0 °F /  0 °C 30.32in /  1026.6hPa Calm     58% 0.00in /  0mm 0.0 W/m2
02:24 45.7 °F /  7.6 °C 32.2 °F /  0.1 °C 30.32in /  1026.6hPa Calm     59% 0.00in /  0mm 0.0 W/m2
02:30 45.5 °F /  7.5 °C 32.0 °F /  0 °C 30.31in /  1026.3hPa Calm     59% 0.00in /  0mm 0.0 W/m2
02:36 45.3 °F /  7.4 °C 31.8 °F /  -0.1 °C 30.31in /  1026.3hPa Calm     59% 0.00in /  0mm 0.0 W/m2
02:42 45.1 °F /  7.3 °C 32.0 °F /  0 °C 30.31in /  1026.3hPa Calm   2.0mph /  3.2km/h 60% 0.00in /  0mm 0.0 W/m2
02:48 45.1 °F /  7.3 °C 32.0 °F /  0 °C 30.31in /  1026.3hPa Calm     60% 0.00in /  0mm 0.0 W/m2
02:54 45.3 °F /  7.4 °C 32.2 °F /  0.1 °C 30.32in /  1026.6hPa Calm     60% 0.00in /  0mm 0.0 W/m2
03:00 45.3 °F /  7.4 °C 32.2 °F /  0.1 °C 30.32in /  1026.6hPa Calm     60% 0.00in /  0mm 0.0 W/m2
03:06 45.3 °F /  7.4 °C 32.2 °F /  0.1 °C 30.32in /  1026.6hPa Calm     60% 0.00in /  0mm 0.0 W/m2
03:12 45.3 °F /  7.4 °C 32.2 °F /  0.1 °C 30.32in /  1026.6hPa Calm     60% 0.00in /  0mm 0.0 W/m2
03:18 45.3 °F /  7.4 °C 32.7 °F /  0.4 °C 30.32in /  1026.6hPa Calm     61% 0.00in /  0mm 0.0 W/m2
03:24 45.1 °F /  7.3 °C 32.5 °F /  0.3 °C 30.32in /  1026.6hPa Calm     61% 0.00in /  0mm 0.0 W/m2
03:30 45.1 °F /  7.3 °C 32.5 °F /  0.3 °C 30.32in /  1026.6hPa Calm     61% 0.00in /  0mm 0.0 W/m2
03:36 45.0 °F /  7.2 °C 32.4 °F /  0.2 °C 30.32in /  1026.6hPa Calm     61% 0.00in /  0mm 0.0 W/m2
03:42 44.8 °F /  7.1 °C 32.5 °F /  0.3 °C 30.32in /  1026.6hPa Calm     62% 0.00in /  0mm 0.0 W/m2
03:48 44.8 °F /  7.1 °C 32.5 °F /  0.3 °C 30.32in /  1026.6hPa Calm     62% 0.00in /  0mm 0.0 W/m2
03:54 44.4 °F /  6.9 °C 32.2 °F /  0.1 °C 30.32in /  1026.6hPa Calm     62% 0.00in /  0mm 0.0 W/m2
03:58 44.4 °F /  6.9 °C 32.2 °F /  0.1 °C 30.32in /  1026.6hPa Calm     62% 0.00in /  0mm 0.0 W/m2
04:04 44.2 °F /  6.8 °C 32.0 °F /  0 °C 30.32in /  1026.6hPa Calm     62% 0.00in /  0mm 0.0 W/m2
04:10 44.1 °F /  6.7 °C 32.4 °F /  0.2 °C 30.32in /  1026.6hPa Calm     63% 0.00in /  0mm 0.0 W/m2
04:16 43.9 °F /  6.6 °C 32.5 °F /  0.3 °C 30.32in /  1026.6hPa Calm     64% 0.00in /  0mm 0.0 W/m2
04:22 43.7 °F /  6.5 °C 32.7 °F /  0.4 °C 30.33in /  1027hPa Calm     65% 0.00in /  0mm 0.0 W/m2
04:28 43.5 °F /  6.4 °C 32.5 °F /  0.3 °C 30.33in /  1027hPa Calm   1.0mph /  1.6km/h 65% 0.00in /  0mm 0.0 W/m2
04:34 43.5 °F /  6.4 °C 32.9 °F /  0.5 °C 30.33in /  1027hPa Calm     66% 0.00in /  0mm 0.0 W/m2
04:40 43.9 °F /  6.6 °C 33.3 °F /  0.7 °C 30.33in /  1027hPa Calm     66% 0.00in /  0mm 0.0 W/m2
04:46 43.7 °F /  6.5 °C 32.0 °F /  0 °C 30.33in /  1027hPa Calm     63% 0.00in /  0mm 0.0 W/m2
04:52 43.5 °F /  6.4 °C 32.2 °F /  0.1 °C 30.33in /  1027hPa Calm     64% 0.00in /  0mm 0.0 W/m2
04:58 43.3 °F /  6.3 °C 32.4 °F /  0.2 °C 30.33in /  1027hPa Calm   1.0mph /  1.6km/h 65% 0.00in /  0mm 0.0 W/m2
05:04 43.5 °F /  6.4 °C 32.9 °F /  0.5 °C 30.34in /  1027.3hPa Calm   1.0mph /  1.6km/h 66% 0.00in /  0mm 0.0 W/m2
05:10 43.9 °F /  6.6 °C 32.9 °F /  0.5 °C 30.34in /  1027.3hPa Calm     65% 0.00in /  0mm 0.0 W/m2
05:16 44.1 °F /  6.7 °C 32.7 °F /  0.4 °C 30.34in /  1027.3hPa Calm     64% 0.00in /  0mm 0.0 W/m2
05:22 43.9 °F /  6.6 °C 32.5 °F /  0.3 °C 30.34in /  1027.3hPa Calm     64% 0.00in /  0mm 0.0 W/m2
05:28 43.5 °F /  6.4 °C 32.5 °F /  0.3 °C 30.34in /  1027.3hPa Calm     65% 0.00in /  0mm 0.0 W/m2
05:34 43.3 °F /  6.3 °C 32.0 °F /  0 °C 30.34in /  1027.3hPa Calm     64% 0.00in /  0mm 0.0 W/m2
05:40 43.2 °F /  6.2 °C 32.5 °F /  0.3 °C 30.34in /  1027.3hPa Calm     66% 0.00in /  0mm 0.0 W/m2
05:46 43.0 °F /  6.1 °C 32.4 °F /  0.2 °C 30.35in /  1027.7hPa Calm     66% 0.00in /  0mm 0.0 W/m2
05:52 42.8 °F /  6 °C 32.2 °F /  0.1 °C 30.35in /  1027.7hPa Calm     66% 0.00in /  0mm 0.0 W/m2
05:58 42.6 °F /  5.9 °C 32.4 °F /  0.2 °C 30.35in /  1027.7hPa Calm     67% 0.00in /  0mm 0.0 W/m2
06:05 42.6 °F /  5.9 °C 32.7 °F /  0.4 °C 30.36in /  1028hPa Calm     68% 0.00in /  0mm 0.0 W/m2
06:11 42.6 °F /  5.9 °C 32.7 °F /  0.4 °C 30.36in /  1028hPa Calm     68% 0.00in /  0mm 0.0 W/m2
06:17 42.6 °F /  5.9 °C 32.4 °F /  0.2 °C 30.36in /  1028hPa Calm     67% 0.00in /  0mm 0.0 W/m2
06:23 42.4 °F /  5.8 °C 32.2 °F /  0.1 °C 30.36in /  1028hPa Calm     67% 0.00in /  0mm 0.0 W/m2
06:29 42.3 °F /  5.7 °C 32.2 °F /  0.1 °C 30.36in /  1028hPa Calm     67% 0.00in /  0mm 0.0 W/m2
06:35 42.1 °F /  5.6 °C 32.0 °F /  0 °C 30.36in /  1028hPa Calm     67% 0.00in /  0mm 5.0 W/m2
06:41 41.7 °F /  5.4 °C 32.0 °F /  0 °C 30.37in /  1028.3hPa Calm     68% 0.00in /  0mm 11.0 W/m2
06:48 41.7 °F /  5.4 °C 32.7 °F /  0.4 °C 30.36in /  1028hPa ESE 2.0mph /  3.2km/h 3.0mph /  4.8km/h 70% 0.00in /  0mm 12.0 W/m2
06:54 42.3 °F /  5.7 °C 33.3 °F /  0.7 °C 30.36in /  1028hPa Calm   5.0mph /  8km/h 70% 0.00in /  0mm 14.0 W/m2
07:00 43.0 °F /  6.1 °C 33.4 °F /  0.8 °C 30.36in /  1028hPa NE 0.9mph /  1.4km/h 2.0mph /  3.2km/h 69% 0.00in /  0mm 16.0 W/m2
07:06 43.5 °F /  6.4 °C 33.6 °F /  0.9 °C 30.36in /  1028hPa Calm   2.0mph /  3.2km/h 68% 0.00in /  0mm 19.0 W/m2
07:12 44.1 °F /  6.7 °C 33.8 °F /  1 °C 30.36in /  1028hPa ENE 0.9mph /  1.4km/h 4.0mph /  6.4km/h 67% 0.00in /  0mm 19.0 W/m2
07:18 44.4 °F /  6.9 °C 33.8 °F /  1 °C 30.36in /  1028hPa Calm   2.0mph /  3.2km/h 66% 0.00in /  0mm 21.0 W/m2
07:24 45.0 °F /  7.2 °C 34.0 °F /  1.1 °C 30.36in /  1028hPa Calm     65% 0.00in /  0mm 23.0 W/m2
07:30 45.3 °F /  7.4 °C 34.3 °F /  1.3 °C 30.36in /  1028hPa Calm   2.0mph /  3.2km/h 65% 0.00in /  0mm 25.0 W/m2
07:36 45.9 °F /  7.7 °C 34.3 °F /  1.3 °C 30.36in /  1028hPa Calm   1.0mph /  1.6km/h 64% 0.00in /  0mm 26.0 W/m2
07:42 46.6 °F /  8.1 °C 35.1 °F /  1.7 °C 30.36in /  1028hPa Calm   1.0mph /  1.6km/h 64% 0.00in /  0mm 28.0 W/m2
07:48 47.3 °F /  8.5 °C 35.4 °F /  1.9 °C 30.37in /  1028.3hPa Calm     63% 0.00in /  0mm 30.0 W/m2
07:55 48.2 °F /  9 °C 36.1 °F /  2.3 °C 30.37in /  1028.3hPa Calm     63% 0.00in /  0mm 30.0 W/m2
08:03 49.6 °F /  9.8 °C 36.0 °F /  2.2 °C 30.37in /  1028.3hPa NNE 0.9mph /  1.4km/h 1.0mph /  1.6km/h 59% 0.00in /  0mm 33.0 W/m2
08:09 50.7 °F /  10.4 °C 36.0 °F /  2.2 °C 30.37in /  1028.3hPa Calm   1.0mph /  1.6km/h 57% 0.00in /  0mm 33.0 W/m2
08:15 52.0 °F /  11.1 °C 36.9 °F /  2.7 °C 30.37in /  1028.3hPa Calm     56% 0.00in /  0mm 35.0 W/m2
08:21 53.1 °F /  11.7 °C 36.9 °F /  2.7 °C 30.38in /  1028.7hPa Calm     54% 0.00in /  0mm 125.0 W/m2
08:27 54.3 °F /  12.4 °C 36.5 °F /  2.5 °C 30.38in /  1028.7hPa Calm   2.0mph /  3.2km/h 51% 0.00in /  0mm 371.0 W/m2
08:33 56.3 °F /  13.5 °C 36.9 °F /  2.7 °C 30.38in /  1028.7hPa Calm   1.0mph /  1.6km/h 48% 0.00in /  0mm 392.0 W/m2
08:39 57.7 °F /  14.3 °C 36.5 °F /  2.5 °C 30.38in /  1028.7hPa Calm   2.0mph /  3.2km/h 45% 0.00in /  0mm 410.0 W/m2
08:46 59.4 °F /  15.2 °C 36.9 °F /  2.7 °C 30.38in /  1028.7hPa NNE 0.9mph /  1.4km/h 2.0mph /  3.2km/h 43% 0.00in /  0mm 429.0 W/m2
08:52 60.3 °F /  15.7 °C 37.0 °F /  2.8 °C 30.39in /  1029hPa Calm   4.0mph /  6.4km/h 42% 0.00in /  0mm 446.0 W/m2
08:58 60.6 °F /  15.9 °C 36.9 °F /  2.7 °C 30.39in /  1029hPa North 2.0mph /  3.2km/h 4.0mph /  6.4km/h 41% 0.00in /  0mm 464.0 W/m2
09:04 61.5 °F /  16.4 °C 37.6 °F /  3.1 °C 30.39in /  1029hPa Calm   2.0mph /  3.2km/h 41% 0.00in /  0mm 482.0 W/m2
09:10 62.1 °F /  16.7 °C 37.4 °F /  3 °C 30.40in /  1029.3hPa Calm   2.0mph /  3.2km/h 40% 0.00in /  0mm 497.0 W/m2
09:16 62.2 °F /  16.8 °C 37.0 °F /  2.8 °C 30.40in /  1029.3hPa Calm   6.0mph /  9.7km/h 39% 0.00in /  0mm 513.0 W/m2
09:22 63.0 °F /  17.2 °C 37.6 °F /  3.1 °C 30.40in /  1029.3hPa NW 2.9mph /  4.7km/h 6.0mph /  9.7km/h 39% 0.00in /  0mm 533.0 W/m2
09:28 63.9 °F /  17.7 °C 37.0 °F /  2.8 °C 30.39in /  1029hPa NW 0.9mph /  1.4km/h 5.0mph /  8km/h 37% 0.00in /  0mm 547.0 W/m2
09:34 64.0 °F /  17.8 °C 37.2 °F /  2.9 °C 30.39in /  1029hPa NW 2.9mph /  4.7km/h 8.0mph /  12.9km/h 37% 0.00in /  0mm 561.0 W/m2
09:40 64.8 °F /  18.2 °C 37.9 °F /  3.3 °C 30.39in /  1029hPa NW 6.0mph /  9.7km/h 6.0mph /  9.7km/h 37% 0.00in /  0mm 577.0 W/m2
09:46 65.1 °F /  18.4 °C 37.6 °F /  3.1 °C 30.39in /  1029hPa North 2.9mph /  4.7km/h 8.0mph /  12.9km/h 36% 0.00in /  0mm 591.0 W/m2
09:52 65.5 °F /  18.6 °C 37.8 °F /  3.2 °C 30.39in /  1029hPa North 0.9mph /  1.4km/h 6.0mph /  9.7km/h 36% 0.00in /  0mm 603.0 W/m2
09:58 65.8 °F /  18.8 °C 37.4 °F /  3 °C 30.39in /  1029hPa NNE 4.0mph /  6.4km/h 9.0mph /  14.5km/h 35% 0.00in /  0mm 617.0 W/m2
10:04 66.0 °F /  18.9 °C 37.6 °F /  3.1 °C 30.39in /  1029hPa NNW 2.0mph /  3.2km/h 5.0mph /  8km/h 35% 0.00in /  0mm 631.0 W/m2
10:10 66.6 °F /  19.2 °C 37.4 °F /  3 °C 30.38in /  1028.7hPa NNW 2.9mph /  4.7km/h 6.0mph /  9.7km/h 34% 0.00in /  0mm 642.0 W/m2
10:17 66.9 °F /  19.4 °C 36.9 °F /  2.7 °C 30.38in /  1028.7hPa NW 4.0mph /  6.4km/h 9.0mph /  14.5km/h 33% 0.00in /  0mm 652.0 W/m2
10:23 67.1 °F /  19.5 °C 37.0 °F /  2.8 °C 30.38in /  1028.7hPa Calm   6.0mph /  9.7km/h 33% 0.00in /  0mm 661.0 W/m2
10:29 67.5 °F /  19.7 °C 37.4 °F /  3 °C 30.38in /  1028.7hPa NNW 2.0mph /  3.2km/h 3.0mph /  4.8km/h 33% 0.00in /  0mm 675.0 W/m2
10:35 67.8 °F /  19.9 °C 36.9 °F /  2.7 °C 30.38in /  1028.7hPa NNE 6.9mph /  11.1km/h 10.0mph /  16.1km/h 32% 0.00in /  0mm 686.0 W/m2
10:41 68.2 °F /  20.1 °C 37.2 °F /  2.9 °C 30.38in /  1028.7hPa North 4.0mph /  6.4km/h 8.0mph /  12.9km/h 32% 0.00in /  0mm 684.0 W/m2
10:47 68.4 °F /  20.2 °C 36.5 °F /  2.5 °C 30.38in /  1028.7hPa North 2.9mph /  4.7km/h 6.0mph /  9.7km/h 31% 0.00in /  0mm 689.0 W/m2
10:53 68.4 °F /  20.2 °C 36.5 °F /  2.5 °C 30.37in /  1028.3hPa NNW 4.9mph /  7.9km/h 6.0mph /  9.7km/h 31% 0.00in /  0mm 682.0 W/m2
11:00 68.5 °F /  20.3 °C 36.7 °F /  2.6 °C 30.37in /  1028.3hPa North 8.1mph /  13km/h 8.1mph /  13km/h 31% 0.00in /  0mm 703.0 W/m2
11:06 68.7 °F /  20.4 °C 36.0 °F /  2.2 °C 30.36in /  1028hPa WNW 0.9mph /  1.4km/h 7.0mph /  11.3km/h 30% 0.00in /  0mm 733.0 W/m2
11:12 69.1 °F /  20.6 °C 36.3 °F /  2.4 °C 30.36in /  1028hPa Calm   3.0mph /  4.8km/h 30% 0.00in /  0mm 687.0 W/m2
11:18 69.4 °F /  20.8 °C 35.8 °F /  2.1 °C 30.36in /  1028hPa Calm   5.0mph /  8km/h 29% 0.00in /  0mm 717.0 W/m2
11:24 69.4 °F /  20.8 °C 34.9 °F /  1.6 °C 30.36in /  1028hPa Calm   5.0mph /  8km/h 28% 0.00in /  0mm 642.0 W/m2
11:30 69.8 °F /  21 °C 36.1 °F /  2.3 °C 30.36in /  1028hPa NW 0.9mph /  1.4km/h 5.0mph /  8km/h 29% 0.00in /  0mm 691.0 W/m2
11:36 70.0 °F /  21.1 °C 35.4 °F /  1.9 °C 30.35in /  1027.7hPa North 2.9mph /  4.7km/h 8.0mph /  12.9km/h 28% 0.00in /  0mm 717.0 W/m2
11:42 70.2 °F /  21.2 °C 35.6 °F /  2 °C 30.35in /  1027.7hPa NNE 2.0mph /  3.2km/h 10.0mph /  16.1km/h 28% 0.00in /  0mm 698.0 W/m2
11:49 70.2 °F /  21.2 °C 34.7 °F /  1.5 °C 30.35in /  1027.7hPa NNW 2.9mph /  4.7km/h 6.0mph /  9.7km/h 27% 0.00in /  0mm 756.0 W/m2
11:55 70.2 °F /  21.2 °C 35.6 °F /  2 °C 30.35in /  1027.7hPa NW 2.9mph /  4.7km/h 7.0mph /  11.3km/h 28% 0.00in /  0mm 714.0 W/m2
12:01 70.0 °F /  21.1 °C 35.4 °F /  1.9 °C 30.34in /  1027.3hPa North 8.9mph /  14.3km/h 9.0mph /  14.5km/h 28% 0.00in /  0mm 747.0 W/m2
12:07 70.0 °F /  21.1 °C 34.5 °F /  1.4 °C 30.34in /  1027.3hPa NNW 2.0mph /  3.2km/h 5.0mph /  8km/h 27% 0.00in /  0mm 707.0 W/m2
12:13 70.0 °F /  21.1 °C 34.5 °F /  1.4 °C 30.34in /  1027.3hPa West 0.9mph /  1.4km/h 5.0mph /  8km/h 27% 0.00in /  0mm 712.0 W/m2
12:19 70.3 °F /  21.3 °C 35.6 °F /  2 °C 30.33in /  1027hPa North 2.0mph /  3.2km/h 4.0mph /  6.4km/h 28% 0.00in /  0mm 714.0 W/m2
12:25 70.9 °F /  21.6 °C 34.3 °F /  1.3 °C 30.33in /  1027hPa West 0.9mph /  1.4km/h 5.0mph /  8km/h 26% 0.00in /  0mm 726.0 W/m2
12:32 71.1 °F /  21.7 °C 33.4 °F /  0.8 °C 30.33in /  1027hPa Calm   8.0mph /  12.9km/h 25% 0.00in /  0mm 649.0 W/m2
12:38 70.7 °F /  21.5 °C 34.2 °F /  1.2 °C 30.33in /  1027hPa NW 0.9mph /  1.4km/h 6.0mph /  9.7km/h 26% 0.00in /  0mm 738.0 W/m2
12:44 70.9 °F /  21.6 °C 34.3 °F /  1.3 °C 30.32in /  1026.6hPa West 2.9mph /  4.7km/h 8.0mph /  12.9km/h 26% 0.00in /  0mm 666.0 W/m2
12:50 70.9 °F /  21.6 °C 34.3 °F /  1.3 °C 30.32in /  1026.6hPa WSW 2.0mph /  3.2km/h 7.0mph /  11.3km/h 26% 0.00in /  0mm 577.0 W/m2
12:56 70.2 °F /  21.2 °C 34.7 °F /  1.5 °C 30.32in /  1026.6hPa NW 6.0mph /  9.7km/h 7.0mph /  11.3km/h 27% 0.00in /  0mm 679.0 W/m2
13:02 70.5 °F /  21.4 °C 34.9 °F /  1.6 °C 30.32in /  1026.6hPa North 6.0mph /  9.7km/h 7.0mph /  11.3km/h 27% 0.00in /  0mm 612.0 W/m2
13:08 70.9 °F /  21.6 °C 34.3 °F /  1.3 °C 30.31in /  1026.3hPa West 2.9mph /  4.7km/h 6.0mph /  9.7km/h 26% 0.00in /  0mm 701.0 W/m2
13:14 70.9 °F /  21.6 °C 34.3 °F /  1.3 °C 30.31in /  1026.3hPa West 2.0mph /  3.2km/h 8.0mph /  12.9km/h 26% 0.00in /  0mm 671.0 W/m2
13:20 71.2 °F /  21.8 °C 33.6 °F /  0.9 °C 30.31in /  1026.3hPa Calm   5.0mph /  8km/h 25% 0.00in /  0mm 640.0 W/m2
13:26 71.4 °F /  21.9 °C 32.7 °F /  0.4 °C 30.31in /  1026.3hPa Calm   4.0mph /  6.4km/h 24% 0.00in /  0mm 596.0 W/m2
13:33 71.4 °F /  21.9 °C 33.8 °F /  1 °C 30.31in /  1026.3hPa NW 2.0mph /  3.2km/h 5.0mph /  8km/h 25% 0.00in /  0mm 622.0 W/m2
13:39 71.8 °F /  22.1 °C 35.1 °F /  1.7 °C 30.31in /  1026.3hPa Calm   7.0mph /  11.3km/h 26% 0.00in /  0mm 643.0 W/m2
13:45 72.1 °F /  22.3 °C 34.3 °F /  1.3 °C 30.31in /  1026.3hPa Calm   6.0mph /  9.7km/h 25% 0.00in /  0mm 582.0 W/m2
13:51 71.6 °F /  22 °C 32.9 °F /  0.5 °C 30.30in /  1026hPa NNW 4.0mph /  6.4km/h 4.0mph /  6.4km/h 24% 0.00in /  0mm 606.0 W/m2
13:57 71.1 °F /  21.7 °C 32.4 °F /  0.2 °C 30.30in /  1026hPa West 8.1mph /  13km/h 8.1mph /  13km/h 24% 0.00in /  0mm 561.0 W/m2
14:03 70.5 °F /  21.4 °C 33.1 °F /  0.6 °C 30.30in /  1026hPa Calm   2.0mph /  3.2km/h 25% 0.00in /  0mm 606.0 W/m2
14:10 70.9 °F /  21.6 °C 33.3 °F /  0.7 °C 30.30in /  1026hPa WNW 2.9mph /  4.7km/h 7.0mph /  11.3km/h 25% 0.00in /  0mm 497.0 W/m2
14:16 71.1 °F /  21.7 °C 33.4 °F /  0.8 °C 30.29in /  1025.6hPa WSW 0.9mph /  1.4km/h 4.0mph /  6.4km/h 25% 0.00in /  0mm 517.0 W/m2
14:22 71.4 °F /  21.9 °C 33.8 °F /  1 °C 30.29in /  1025.6hPa WNW 2.0mph /  3.2km/h 6.0mph /  9.7km/h 25% 0.00in /  0mm 554.0 W/m2
14:28 71.6 °F /  22 °C 34.0 °F /  1.1 °C 30.29in /  1025.6hPa West 0.9mph /  1.4km/h 8.0mph /  12.9km/h 25% 0.00in /  0mm 529.0 W/m2
14:34 72.0 °F /  22.2 °C 33.3 °F /  0.7 °C 30.29in /  1025.6hPa Calm   1.0mph /  1.6km/h 24% 0.00in /  0mm 513.0 W/m2
14:40 71.8 °F /  22.1 °C 33.1 °F /  0.6 °C 30.29in /  1025.6hPa West 0.9mph /  1.4km/h 6.0mph /  9.7km/h 24% 0.00in /  0mm 497.0 W/m2
14:47 71.8 °F /  22.1 °C 33.1 °F /  0.6 °C 30.29in /  1025.6hPa WNW 0.9mph /  1.4km/h 7.0mph /  11.3km/h 24% 0.00in /  0mm 483.0 W/m2
14:52 71.8 °F /  22.1 °C 33.1 °F /  0.6 °C 30.29in /  1025.6hPa West 0.9mph /  1.4km/h 3.0mph /  4.8km/h 24% 0.00in /  0mm 429.0 W/m2
14:59 71.8 °F /  22.1 °C 33.1 °F /  0.6 °C 30.29in /  1025.6hPa East 0.9mph /  1.4km/h 3.0mph /  4.8km/h 24% 0.00in /  0mm 434.0 W/m2
15:05 71.8 °F /  22.1 °C 33.1 °F /  0.6 °C 30.29in /  1025.6hPa Calm   4.0mph /  6.4km/h 24% 0.00in /  0mm 429.0 W/m2
15:11 71.8 °F /  22.1 °C 33.1 °F /  0.6 °C 30.29in /  1025.6hPa Calm   1.0mph /  1.6km/h 24% 0.00in /  0mm 408.0 W/m2
15:17 71.8 °F /  22.1 °C 33.1 °F /  0.6 °C 30.29in /  1025.6hPa NNW 4.9mph /  7.9km/h 7.0mph /  11.3km/h 24% 0.00in /  0mm 385.0 W/m2
15:23 71.8 °F /  22.1 °C 33.1 °F /  0.6 °C 30.29in /  1025.6hPa NNE 4.0mph /  6.4km/h 5.0mph /  8km/h 24% 0.00in /  0mm 359.0 W/m2
15:29 71.6 °F /  22 °C 32.9 °F /  0.5 °C 30.29in /  1025.6hPa Calm   8.0mph /  12.9km/h 24% 0.00in /  0mm 343.0 W/m2
15:35 71.1 °F /  21.7 °C 32.4 °F /  0.2 °C 30.29in /  1025.6hPa Calm   2.0mph /  3.2km/h 24% 0.00in /  0mm 329.0 W/m2
15:42 70.5 °F /  21.4 °C 32.0 °F /  0 °C 30.29in /  1025.6hPa Calm   1.0mph /  1.6km/h 24% 0.00in /  0mm 304.0 W/m2
15:48 70.2 °F /  21.2 °C 32.7 °F /  0.4 °C 30.29in /  1025.6hPa WSW 0.9mph /  1.4km/h 3.0mph /  4.8km/h 25% 0.00in /  0mm 72.0 W/m2
15:54 70.3 °F /  21.3 °C 32.9 °F /  0.5 °C 30.29in /  1025.6hPa WNW 0.9mph /  1.4km/h 4.0mph /  6.4km/h 25% 0.00in /  0mm 49.0 W/m2
16:00 70.2 °F /  21.2 °C 33.6 °F /  0.9 °C 30.29in /  1025.6hPa NW 2.0mph /  3.2km/h 4.0mph /  6.4km/h 26% 0.00in /  0mm 46.0 W/m2
16:06 70.0 °F /  21.1 °C 33.4 °F /  0.8 °C 30.30in /  1026hPa NNW 0.9mph /  1.4km/h 4.0mph /  6.4km/h 26% 0.00in /  0mm 44.0 W/m2
16:12 69.4 °F /  20.8 °C 33.1 °F /  0.6 °C 30.30in /  1026hPa Calm   1.0mph /  1.6km/h 26% 0.00in /  0mm 40.0 W/m2
16:18 69.3 °F /  20.7 °C 32.9 °F /  0.5 °C 30.30in /  1026hPa SSW 4.0mph /  6.4km/h 6.0mph /  9.7km/h 26% 0.00in /  0mm 39.0 W/m2
16:25 69.3 °F /  20.7 °C 32.9 °F /  0.5 °C 30.30in /  1026hPa Calm   1.0mph /  1.6km/h 26% 0.00in /  0mm 49.0 W/m2
16:31 69.1 °F /  20.6 °C 32.7 °F /  0.4 °C 30.30in /  1026hPa Calm     26% 0.00in /  0mm 35.0 W/m2
16:37 68.7 °F /  20.4 °C 32.4 °F /  0.2 °C 30.30in /  1026hPa NNW 0.9mph /  1.4km/h 3.0mph /  4.8km/h 26% 0.00in /  0mm 30.0 W/m2
16:43 68.5 °F /  20.3 °C 33.3 °F /  0.7 °C 30.30in /  1026hPa NW 0.9mph /  1.4km/h 1.0mph /  1.6km/h 27% 0.00in /  0mm 26.0 W/m2
16:49 68.4 °F /  20.2 °C 32.2 °F /  0.1 °C 30.30in /  1026hPa NNW 2.0mph /  3.2km/h 4.0mph /  6.4km/h 26% 0.00in /  0mm 35.0 W/m2
16:55 67.8 °F /  19.9 °C 31.6 °F /  -0.2 °C 30.30in /  1026hPa Calm   1.0mph /  1.6km/h 26% 0.00in /  0mm 19.0 W/m2
17:01 67.6 °F /  19.8 °C 32.5 °F /  0.3 °C 30.31in /  1026.3hPa Calm     27% 0.00in /  0mm 23.0 W/m2
17:07 67.3 °F /  19.6 °C 32.2 °F /  0.1 °C 30.31in /  1026.3hPa Calm   1.0mph /  1.6km/h 27% 0.00in /  0mm 12.0 W/m2
17:14 66.9 °F /  19.4 °C 32.7 °F /  0.4 °C 30.31in /  1026.3hPa Calm     28% 0.00in /  0mm 11.0 W/m2
17:20 66.6 °F /  19.2 °C 33.3 °F /  0.7 °C 30.31in /  1026.3hPa Calm     29% 0.00in /  0mm 7.0 W/m2
17:26 66.0 °F /  18.9 °C 32.9 °F /  0.5 °C 30.31in /  1026.3hPa Calm     29% 0.00in /  0mm 5.0 W/m2
17:32 65.5 °F /  18.6 °C 32.4 °F /  0.2 °C 30.32in /  1026.6hPa Calm     29% 0.00in /  0mm 0.0 W/m2
17:38 64.8 °F /  18.2 °C 32.5 °F /  0.3 °C 30.32in /  1026.6hPa Calm     30% 0.00in /  0mm 0.0 W/m2
17:44 64.2 °F /  17.9 °C 32.2 °F /  0.1 °C 30.32in /  1026.6hPa Calm     30% 0.00in /  0mm 0.0 W/m2
17:50 63.7 °F /  17.6 °C 32.5 °F /  0.3 °C 30.32in /  1026.6hPa Calm     31% 0.00in /  0mm 0.0 W/m2
17:56 63.0 °F /  17.2 °C 32.7 °F /  0.4 °C 30.32in /  1026.6hPa Calm     32% 0.00in /  0mm 0.0 W/m2
18:03 62.2 °F /  16.8 °C 32.0 °F /  0 °C 30.32in /  1026.6hPa Calm     32% 0.00in /  0mm 0.0 W/m2
18:09 61.5 °F /  16.4 °C 32.2 °F /  0.1 °C 30.32in /  1026.6hPa Calm     33% 0.00in /  0mm 0.0 W/m2
18:15 61.0 °F /  16.1 °C 32.4 °F /  0.2 °C 30.32in /  1026.6hPa Calm     34% 0.00in /  0mm 0.0 W/m2
18:21 60.4 °F /  15.8 °C 32.0 °F /  0 °C 30.32in /  1026.6hPa Calm     34% 0.00in /  0mm 0.0 W/m2
18:27 59.7 °F /  15.4 °C 31.3 °F /  -0.4 °C 30.33in /  1027hPa Calm     34% 0.00in /  0mm 0.0 W/m2
18:33 59.2 °F /  15.1 °C 31.5 °F /  -0.3 °C 30.33in /  1027hPa Calm     35% 0.00in /  0mm 0.0 W/m2
18:39 58.6 °F /  14.8 °C 31.8 °F /  -0.1 °C 30.33in /  1027hPa Calm     36% 0.00in /  0mm 0.0 W/m2
18:46 58.3 °F /  14.6 °C 31.5 °F /  -0.3 °C 30.33in /  1027hPa Calm     36% 0.00in /  0mm 0.0 W/m2
18:52 57.7 °F /  14.3 °C 31.6 °F /  -0.2 °C 30.33in /  1027hPa Calm     37% 0.00in /  0mm 0.0 W/m2
18:58 57.4 °F /  14.1 °C 31.3 °F /  -0.4 °C 30.33in /  1027hPa Calm     37% 0.00in /  0mm 0.0 W/m2
19:04 56.8 °F /  13.8 °C 30.9 °F /  -0.6 °C 30.33in /  1027hPa Calm   1.0mph /  1.6km/h 37% 0.00in /  0mm 0.0 W/m2
19:10 56.5 °F /  13.6 °C 30.6 °F /  -0.8 °C 30.34in /  1027.3hPa Calm     37% 0.00in /  0mm 0.0 W/m2
19:16 55.9 °F /  13.3 °C 30.7 °F /  -0.7 °C 30.34in /  1027.3hPa Calm     38% 0.00in /  0mm 0.0 W/m2
19:23 55.8 °F /  13.2 °C 31.1 °F /  -0.5 °C 30.34in /  1027.3hPa Calm   1.0mph /  1.6km/h 39% 0.00in /  0mm 0.0 W/m2
19:29 55.6 °F /  13.1 °C 31.1 °F /  -0.5 °C 30.34in /  1027.3hPa Calm   2.0mph /  3.2km/h 39% 0.00in /  0mm 0.0 W/m2
19:35 55.4 °F /  13 °C 30.9 °F /  -0.6 °C 30.35in /  1027.7hPa Calm     39% 0.00in /  0mm 0.0 W/m2
19:41 55.2 °F /  12.9 °C 31.3 °F /  -0.4 °C 30.35in /  1027.7hPa ESE 3.0mph /  4.8km/h 3.0mph /  4.8km/h 40% 0.00in /  0mm 0.0 W/m2
19:47 55.2 °F /  12.9 °C 31.3 °F /  -0.4 °C 30.35in /  1027.7hPa Calm     40% 0.00in /  0mm 0.0 W/m2
19:53 55.0 °F /  12.8 °C 30.6 °F /  -0.8 °C 30.35in /  1027.7hPa Calm     39% 0.00in /  0mm 0.0 W/m2
19:59 54.9 °F /  12.7 °C 30.9 °F /  -0.6 °C 30.35in /  1027.7hPa Calm     40% 0.00in /  0mm 0.0 W/m2
20:05 54.7 °F /  12.6 °C 30.9 °F /  -0.6 °C 30.35in /  1027.7hPa Calm     40% 0.00in /  0mm 0.0 W/m2
20:11 54.1 °F /  12.3 °C 30.4 °F /  -0.9 °C 30.36in /  1028hPa Calm     40% 0.00in /  0mm 0.0 W/m2
20:18 53.8 °F /  12.1 °C 30.6 °F /  -0.8 °C 30.36in /  1028hPa Calm     41% 0.00in /  0mm 0.0 W/m2
20:24 53.4 °F /  11.9 °C 30.9 °F /  -0.6 °C 30.36in /  1028hPa Calm     42% 0.00in /  0mm 0.0 W/m2
20:30 53.2 °F /  11.8 °C 30.7 °F /  -0.7 °C 30.36in /  1028hPa Calm     42% 0.00in /  0mm 0.0 W/m2
20:36 53.1 °F /  11.7 °C 30.6 °F /  -0.8 °C 30.36in /  1028hPa Calm     42% 0.00in /  0mm 0.0 W/m2
20:42 52.9 °F /  11.6 °C 30.4 °F /  -0.9 °C 30.36in /  1028hPa Calm   1.0mph /  1.6km/h 42% 0.00in /  0mm 0.0 W/m2
20:48 53.1 °F /  11.7 °C 30.6 °F /  -0.8 °C 30.36in /  1028hPa Calm   1.0mph /  1.6km/h 42% 0.00in /  0mm 0.0 W/m2
20:55 53.1 °F /  11.7 °C 30.6 °F /  -0.8 °C 30.36in /  1028hPa Calm     42% 0.00in /  0mm 0.0 W/m2
21:01 53.1 °F /  11.7 °C 30.6 °F /  -0.8 °C 30.36in /  1028hPa Calm   1.0mph /  1.6km/h 42% 0.00in /  0mm 0.0 W/m2
21:09 53.2 °F /  11.8 °C 30.7 °F /  -0.7 °C 30.36in /  1028hPa Calm   1.0mph /  1.6km/h 42% 0.00in /  0mm 0.0 W/m2
21:11 53.2 °F /  11.8 °C 30.7 °F /  -0.7 °C 30.36in /  1028hPa Calm     42% 0.00in /  0mm 0.0 W/m2
21:17 53.2 °F /  11.8 °C 30.7 °F /  -0.7 °C 30.36in /  1028hPa Calm   1.0mph /  1.6km/h 42% 0.00in /  0mm 0.0 W/m2
21:23 53.2 °F /  11.8 °C 30.7 °F /  -0.7 °C 30.37in /  1028.3hPa Calm   3.0mph /  4.8km/h 42% 0.00in /  0mm 0.0 W/m2
21:25 53.2 °F /  11.8 °C 30.7 °F /  -0.7 °C 30.37in /  1028.3hPa Calm   3.0mph /  4.8km/h 42% 0.00in /  0mm 0.0 W/m2
21:31 52.9 °F /  11.6 °C 30.4 °F /  -0.9 °C 30.37in /  1028.3hPa Calm   4.0mph /  6.4km/h 42% 0.00in /  0mm 0.0 W/m2
21:37 52.7 °F /  11.5 °C 30.2 °F /  -1 °C 30.37in /  1028.3hPa Calm   2.0mph /  3.2km/h 42% 0.00in /  0mm 0.0 W/m2
21:44 52.3 °F /  11.3 °C 30.6 °F /  -0.8 °C 30.37in /  1028.3hPa Calm   1.0mph /  1.6km/h 43% 0.00in /  0mm 0.0 W/m2
21:46 52.3 °F /  11.3 °C 30.6 °F /  -0.8 °C 30.37in /  1028.3hPa Calm   1.0mph /  1.6km/h 43% 0.00in /  0mm 0.0 W/m2
21:52 52.2 °F /  11.2 °C 30.4 °F /  -0.9 °C 30.37in /  1028.3hPa Calm     43% 0.00in /  0mm 0.0 W/m2
21:58 52.0 °F /  11.1 °C 30.2 °F /  -1 °C 30.37in /  1028.3hPa Calm     43% 0.00in /  0mm 0.0 W/m2
22:04 51.6 °F /  10.9 °C 30.4 °F /  -0.9 °C 30.37in /  1028.3hPa Calm   3.0mph /  4.8km/h 44% 0.00in /  0mm 0.0 W/m2
22:10 51.4 °F /  10.8 °C 30.7 °F /  -0.7 °C 30.37in /  1028.3hPa ESE 2.0mph /  3.2km/h 2.0mph /  3.2km/h 45% 0.00in /  0mm 0.0 W/m2
22:16 51.4 °F /  10.8 °C 30.7 °F /  -0.7 °C 30.38in /  1028.7hPa Calm   1.0mph /  1.6km/h 45% 0.00in /  0mm 0.0 W/m2
22:23 51.4 °F /  10.8 °C 30.7 °F /  -0.7 °C 30.38in /  1028.7hPa Calm     45% 0.00in /  0mm 0.0 W/m2
22:29 51.3 °F /  10.7 °C 30.6 °F /  -0.8 °C 30.37in /  1028.3hPa Calm   1.0mph /  1.6km/h 45% 0.00in /  0mm 0.0 W/m2
22:35 51.1 °F /  10.6 °C 30.6 °F /  -0.8 °C 30.38in /  1028.7hPa Calm   1.0mph /  1.6km/h 45% 0.00in /  0mm 0.0 W/m2
22:41 51.1 °F /  10.6 °C 30.6 °F /  -0.8 °C 30.38in /  1028.7hPa ESE 0.9mph /  1.4km/h 2.0mph /  3.2km/h 45% 0.00in /  0mm 0.0 W/m2
22:47 50.7 °F /  10.4 °C 30.7 °F /  -0.7 °C 30.38in /  1028.7hPa Calm   4.0mph /  6.4km/h 46% 0.00in /  0mm 0.0 W/m2
22:53 50.7 °F /  10.4 °C 30.7 °F /  -0.7 °C 30.38in /  1028.7hPa Calm   2.0mph /  3.2km/h 46% 0.00in /  0mm 0.0 W/m2
22:59 50.7 °F /  10.4 °C 30.7 °F /  -0.7 °C 30.38in /  1028.7hPa Calm     46% 0.00in /  0mm 0.0 W/m2
23:05 50.7 °F /  10.4 °C 30.7 °F /  -0.7 °C 30.38in /  1028.7hPa Calm   4.0mph /  6.4km/h 46% 0.00in /  0mm 0.0 W/m2
23:11 50.9 °F /  10.5 °C 30.9 °F /  -0.6 °C 30.37in /  1028.3hPa Calm   1.0mph /  1.6km/h 46% 0.00in /  0mm 0.0 W/m2
23:18 50.7 °F /  10.4 °C 30.7 °F /  -0.7 °C 30.37in /  1028.3hPa ENE 0.9mph /  1.4km/h 3.0mph /  4.8km/h 46% 0.00in /  0mm 0.0 W/m2
23:24 50.7 °F /  10.4 °C 30.7 °F /  -0.7 °C 30.38in /  1028.7hPa Calm   1.0mph /  1.6km/h 46% 0.00in /  0mm 0.0 W/m2
23:30 50.5 °F /  10.3 °C 30.6 °F /  -0.8 °C 30.38in /  1028.7hPa Calm   1.0mph /  1.6km/h 46% 0.00in /  0mm 0.0 W/m2
23:36 50.5 °F /  10.3 °C 30.6 °F /  -0.8 °C 30.38in /  1028.7hPa Calm     46% 0.00in /  0mm 0.0 W/m2
23:42 50.5 °F /  10.3 °C 30.6 °F /  -0.8 °C 30.37in /  1028.3hPa Calm   1.0mph /  1.6km/h 46% 0.00in /  0mm 0.0 W/m2
23:48 50.5 °F /  10.3 °C 30.6 °F /  -0.8 °C 30.37in /  1028.3hPa SE 0.9mph /  1.4km/h 1.0mph /  1.6km/h 46% 0.00in /  0mm 0.0 W/m2
23:54 50.4 °F /  10.2 °C 30.4 °F /  -0.9 °C 30.37in /  1028.3hPa Calm   4.0mph /  6.4km/h 46% 0.00in /  0mm 0.0 W/m2
Olympia, Windhoek, Namibia
Compliments of Weather Underground - 3 mb